createdAt,value
2022-09-11T00:00:56.414Z,95343.44
2022-09-11T00:03:24.624Z,95342.63
2022-09-11T00:05:52.096Z,95344.53
2022-09-11T00:08:20.347Z,95342.69
2022-09-11T00:10:48.394Z,95336.25
2022-09-11T00:13:21.270Z,95336.00
2022-09-11T00:15:50.836Z,95323.16
2022-09-11T00:18:23.399Z,95329.31
2022-09-11T00:20:55.197Z,95320.50
2022-09-11T00:23:23.838Z,95326.38
2022-09-11T00:25:51.108Z,95326.38
2022-09-11T00:28:23.493Z,95333.03
2022-09-11T00:31:07.800Z,95328.97
2022-09-11T00:33:35.607Z,95324.41
2022-09-11T00:36:08.485Z,95333.66
2022-09-11T00:38:37.692Z,95330.47
2022-09-11T00:41:06.419Z,95324.75
2022-09-11T00:43:51.162Z,95323.94
2022-09-11T00:46:17.719Z,95322.78
2022-09-11T00:48:49.791Z,95319.09
2022-09-11T00:51:26.623Z,95314.56
2022-09-11T00:53:56.315Z,95308.13
2022-09-11T00:56:26.380Z,95301.34
2022-09-11T00:58:55.974Z,95308.94
2022-09-11T01:01:22.532Z,95298.44
2022-09-11T01:03:49.147Z,95305.88
2022-09-11T01:06:16.095Z,95294.91
2022-09-11T01:08:43.335Z,95297.22
2022-09-11T01:11:18.808Z,95292.56
2022-09-11T01:14:00.279Z,95299.72
2022-09-11T01:16:54.010Z,95306.00
2022-09-11T01:19:47.580Z,95300.59
2022-09-11T01:22:17.001Z,95305.84
2022-09-11T01:25:15.645Z,95307.91
2022-09-11T01:27:48.294Z,95299.38
2022-09-11T01:30:21.073Z,95297.94
2022-09-11T01:32:59.806Z,95302.44
2022-09-11T01:35:34.032Z,95299.69
2022-09-11T01:38:24.084Z,95300.38
2022-09-11T01:40:54.102Z,95296.13
2022-09-11T01:43:27.122Z,95300.16
2022-09-11T01:45:56.872Z,95298.19
2022-09-11T01:48:32.220Z,95312.22
2022-09-11T01:51:01.110Z,95306.91
2022-09-11T01:53:33.959Z,95301.50
2022-09-11T01:56:05.684Z,95304.97
2022-09-11T01:58:36.386Z,95315.13
2022-09-11T02:01:19.362Z,95304.72
2022-09-11T02:03:54.652Z,95309.81
2022-09-11T02:06:47.582Z,95307.72
2022-09-11T02:09:18.012Z,95308.03
2022-09-11T02:11:48.455Z,95318.13
2022-09-11T02:14:34.289Z,95317.78
2022-09-11T02:17:51.040Z,95322.38
2022-09-11T02:20:17.872Z,95314.06
2022-09-11T02:22:44.526Z,95315.59
2022-09-11T02:25:11.594Z,95313.63
2022-09-11T02:27:38.047Z,95315.28
2022-09-11T02:30:05.276Z,95316.88
2022-09-11T02:32:36.536Z,95311.56
2022-09-11T02:35:03.802Z,95311.88
2022-09-11T02:37:46.526Z,95309.22
2022-09-11T02:40:27.174Z,95304.97
2022-09-11T02:43:05.847Z,95299.66
2022-09-11T02:46:00.499Z,95300.44
2022-09-11T02:49:04.046Z,95301.25
2022-09-11T02:52:00.164Z,95297.53
2022-09-11T02:54:41.588Z,95291.97
2022-09-11T02:57:16.010Z,95292.56
2022-09-11T02:59:47.000Z,95292.06
2022-09-11T03:02:15.507Z,95289.41
2022-09-11T03:04:42.138Z,95289.31
2022-09-11T03:07:09.206Z,95292.56
2022-09-11T03:09:35.781Z,95288.53
2022-09-11T03:12:04.524Z,95290.94
2022-09-11T03:14:31.288Z,95297.88
2022-09-11T03:16:57.814Z,95297.88
2022-09-11T03:19:25.027Z,95304.34
2022-09-11T03:21:51.561Z,95299.50
2022-09-11T03:24:18.282Z,95307.56
2022-09-11T03:26:44.824Z,95308.50
2022-09-11T03:29:11.611Z,95303.34
2022-09-11T03:31:39.417Z,95295.75
2022-09-11T03:34:06.511Z,95303.28
2022-09-11T03:36:34.467Z,95304.91
2022-09-11T03:39:01.530Z,95306.88
2022-09-11T03:41:28.357Z,95309.03
2022-09-11T03:43:54.947Z,95313.06
2022-09-11T03:46:21.533Z,95309.94
2022-09-11T03:48:48.022Z,95312.13
2022-09-11T03:51:15.276Z,95313.97
2022-09-11T03:53:42.655Z,95318.03
2022-09-11T03:56:09.240Z,95303.19
2022-09-11T03:58:35.846Z,95324.22
2022-09-11T04:01:08.709Z,95319.72
2022-09-11T04:03:35.288Z,95315.47
2022-09-11T04:06:03.492Z,95319.81
2022-09-11T04:08:33.924Z,95314.00
2022-09-11T04:11:03.014Z,95317.81
2022-09-11T04:13:34.748Z,95324.53
2022-09-11T04:16:03.754Z,95317.91
2022-09-11T04:18:32.485Z,95314.19
2022-09-11T04:20:58.936Z,95304.34
2022-09-11T04:23:25.444Z,95318.16
2022-09-11T04:25:52.501Z,95310.00
2022-09-11T04:28:19.780Z,95308.69
2022-09-11T04:30:46.290Z,95308.69
2022-09-11T04:33:12.814Z,95301.28
2022-09-11T04:35:40.424Z,95305.25
2022-09-11T04:38:08.115Z,95313.56
2022-09-11T04:40:35.152Z,95309.34
2022-09-11T04:43:02.432Z,95304.34
2022-09-11T04:45:33.466Z,95306.00
2022-09-11T04:48:00.948Z,95313.25
2022-09-11T04:50:28.967Z,95304.78
2022-09-11T04:52:55.467Z,95304.78
2022-09-11T04:55:22.038Z,95308.25
2022-09-11T04:57:48.705Z,95302.13
2022-09-11T05:00:15.658Z,95308.41
2022-09-11T05:02:42.177Z,95304.13
2022-09-11T05:05:09.392Z,95295.66
2022-09-11T05:07:36.549Z,95287.44
2022-09-11T05:10:03.193Z,95291.47
2022-09-11T05:12:31.087Z,95285.75
2022-09-11T05:14:57.892Z,95298.03
2022-09-11T05:17:24.330Z,95291.59
2022-09-11T05:19:50.994Z,95283.47
2022-09-11T05:22:17.454Z,95287.28
2022-09-11T05:24:43.905Z,95293.72
2022-09-11T05:27:11.999Z,95294.03
2022-09-11T05:29:39.191Z,95290.44
2022-09-11T05:32:06.071Z,95296.31
2022-09-11T05:34:32.544Z,95286.47
2022-09-11T05:36:59.112Z,95295.50
2022-09-11T05:39:25.603Z,95296.53
2022-09-11T05:41:52.636Z,95288.97
2022-09-11T05:44:19.871Z,95284.22
2022-09-11T05:46:46.597Z,95280.41
2022-09-11T05:49:13.082Z,95286.06
2022-09-11T05:51:41.660Z,95285.41
2022-09-11T05:54:08.287Z,95290.13
2022-09-11T05:56:34.907Z,95287.00
2022-09-11T05:59:02.584Z,95288.94
2022-09-11T06:01:30.484Z,95286.59
2022-09-11T06:03:57.997Z,95290.63
2022-09-11T06:06:25.194Z,95288.28
2022-09-11T06:08:52.944Z,95288.13
2022-09-11T06:11:21.351Z,95288.38
2022-09-11T06:13:48.294Z,95281.41
2022-09-11T06:16:20.697Z,95275.13
2022-09-11T06:18:51.083Z,95274.72
2022-09-11T06:21:20.620Z,95278.59
2022-09-11T06:23:48.830Z,95289.38
2022-09-11T06:26:17.482Z,95281.78
2022-09-11T06:28:44.050Z,95285.66
2022-09-11T06:31:13.476Z,95284.66
2022-09-11T06:33:41.081Z,95289.78
2022-09-11T06:36:11.280Z,95281.28
2022-09-11T06:38:40.904Z,95290.66
2022-09-11T06:41:12.415Z,95280.00
2022-09-11T06:43:38.862Z,95291.22
2022-09-11T06:46:12.509Z,95289.91
2022-09-11T06:48:43.634Z,95292.66
2022-09-11T06:51:13.960Z,95289.47
2022-09-11T06:53:41.514Z,95298.84
2022-09-11T06:56:12.834Z,95294.91
2022-09-11T06:58:40.101Z,95287.44
2022-09-11T07:01:27.071Z,95294.41
2022-09-11T07:03:54.878Z,95284.09
2022-09-11T07:06:27.219Z,95291.69
2022-09-11T07:09:01.618Z,95281.06
2022-09-11T07:11:35.356Z,95278.47
2022-09-11T07:14:06.418Z,95284.09
2022-09-11T07:16:33.557Z,95285.22
2022-09-11T07:19:00.267Z,95290.06
2022-09-11T07:21:28.109Z,95284.78
2022-09-11T07:23:57.124Z,95285.34
2022-09-11T07:26:26.326Z,95274.16
2022-09-11T07:28:54.680Z,95278.16
2022-09-11T07:31:24.109Z,95278.47
2022-09-11T07:33:52.641Z,95281.19
2022-09-11T07:36:21.534Z,95282.03
2022-09-11T07:38:49.662Z,95275.72
2022-09-11T07:41:18.073Z,95278.72
2022-09-11T07:43:51.036Z,95275.03
2022-09-11T07:46:17.670Z,95266.00
2022-09-11T07:48:44.919Z,95279.94
2022-09-11T07:51:13.399Z,95286.13
2022-09-11T07:53:50.969Z,95285.91
2022-09-11T07:56:23.195Z,95287.28
2022-09-11T07:58:50.794Z,95279.00
2022-09-11T08:01:20.746Z,95288.38
2022-09-11T08:03:47.454Z,95280.06
2022-09-11T08:06:21.934Z,95291.28
2022-09-11T08:08:52.745Z,95300.69
2022-09-11T08:11:19.780Z,95296.13
2022-09-11T08:13:51.385Z,95300.16
2022-09-11T08:16:24.587Z,95297.75
2022-09-11T08:18:52.288Z,95300.97
2022-09-11T08:21:19.303Z,95308.75
2022-09-11T08:23:46.393Z,95309.09
2022-09-11T08:26:22.532Z,95309.13
2022-09-11T08:28:50.699Z,95310.47
2022-09-11T08:31:18.467Z,95314.75
2022-09-11T08:33:45.779Z,95295.81
2022-09-11T08:36:16.108Z,95316.66
2022-09-11T08:38:44.285Z,95312.94
2022-09-11T08:41:13.101Z,95321.19
2022-09-11T08:43:51.399Z,95313.94
2022-09-11T08:46:20.962Z,95320.38
2022-09-11T08:49:02.710Z,95318.19
2022-09-11T08:51:31.508Z,95317.91
2022-09-11T08:54:00.118Z,95320.81
2022-09-11T08:56:29.950Z,95317.09
2022-09-11T08:59:15.165Z,95320.34
2022-09-11T09:02:22.296Z,95317.66
2022-09-11T09:05:20.573Z,95316.03
2022-09-11T09:08:04.853Z,95319.50
2022-09-11T09:10:52.161Z,95311.00
2022-09-11T09:13:36.868Z,95303.78
2022-09-11T09:16:19.247Z,95308.59
2022-09-11T09:18:55.945Z,95299.53
2022-09-11T09:21:37.546Z,95303.25
2022-09-11T09:24:19.404Z,95317.47
2022-09-11T09:26:50.861Z,95309.72
2022-09-11T09:29:23.591Z,95311.31
2022-09-11T09:32:04.371Z,95306.78
2022-09-11T09:34:36.161Z,95306.25
2022-09-11T09:37:06.167Z,95310.31
2022-09-11T09:39:36.179Z,95302.81
2022-09-11T09:42:14.526Z,95309.50
2022-09-11T09:45:01.108Z,95297.47
2022-09-11T09:47:29.718Z,95298.56
2022-09-11T09:49:58.449Z,95309.25
2022-09-11T09:52:43.518Z,95305.00
2022-09-11T09:55:18.909Z,95300.72
2022-09-11T09:57:45.379Z,95295.38
2022-09-11T10:00:15.015Z,95303.41
2022-09-11T10:02:55.088Z,95305.09
2022-09-11T10:05:29.451Z,95299.72
2022-09-11T10:08:05.959Z,95298.41
2022-09-11T10:10:36.335Z,95294.41
2022-09-11T10:13:19.028Z,95296.56
2022-09-11T10:15:49.143Z,95294.44
2022-09-11T10:18:37.682Z,95297.94
2022-09-11T10:21:13.234Z,95289.13
2022-09-11T10:23:47.156Z,95296.63
2022-09-11T10:26:26.893Z,95290.19
2022-09-11T10:28:56.186Z,95297.72
2022-09-11T10:31:22.929Z,95302.53
2022-09-11T10:33:56.566Z,95305.22
2022-09-11T10:36:25.965Z,95292.94
2022-09-11T10:38:53.008Z,95292.38
2022-09-11T10:41:22.722Z,95300.41
2022-09-11T10:43:52.912Z,95300.44
2022-09-11T10:46:19.339Z,95304.13
2022-09-11T10:49:19.677Z,95291.31
2022-09-11T10:52:08.062Z,95308.44
2022-09-11T10:55:12.995Z,95289.16
2022-09-11T10:57:45.813Z,95290.75
2022-09-11T11:00:25.532Z,95293.44
2022-09-11T11:03:05.292Z,95301.47
2022-09-11T11:05:46.981Z,95307.94
2022-09-11T11:08:30.199Z,95297.50
2022-09-11T11:11:14.836Z,95290.28
2022-09-11T11:14:13.262Z,95299.91
2022-09-11T11:17:09.096Z,95292.97
2022-09-11T11:20:12.620Z,95297.28
2022-09-11T11:23:05.910Z,95294.63
2022-09-11T11:25:51.048Z,95294.63
2022-09-11T11:28:31.806Z,95300.25
2022-09-11T11:31:19.315Z,95302.41
2022-09-11T11:34:14.105Z,95306.16
2022-09-11T11:36:46.725Z,95312.81
2022-09-11T11:39:30.577Z,95316.59
2022-09-11T11:42:16.912Z,95302.66
2022-09-11T11:44:52.023Z,95318.72
2022-09-11T11:47:25.317Z,95326.75
2022-09-11T11:50:13.668Z,95318.44
2022-09-11T11:52:56.455Z,95321.38
2022-09-11T11:55:43.261Z,95318.72
2022-09-11T11:58:58.719Z,95327.25
2022-09-11T12:01:44.299Z,95328.28
2022-09-11T12:04:35.221Z,95332.84
2022-09-11T12:07:04.172Z,95318.63
2022-09-11T12:09:33.946Z,95315.69
2022-09-11T12:12:06.170Z,95315.94
2022-09-11T12:14:34.270Z,95306.34
2022-09-11T12:17:19.154Z,95302.03
2022-09-11T12:20:13.482Z,95308.16
2022-09-11T12:22:48.794Z,95310.59
2022-09-11T12:25:21.558Z,95297.22
2022-09-11T12:27:50.906Z,95293.19
2022-09-11T12:30:17.513Z,95299.34
2022-09-11T12:32:52.330Z,95307.41
2022-09-11T12:35:31.508Z,95290.81
2022-09-11T12:38:03.877Z,95293.53
2022-09-11T12:40:40.068Z,95289.53
2022-09-11T12:43:17.032Z,95300.00
2022-09-11T12:45:43.974Z,95296.00
2022-09-11T12:48:14.638Z,95294.94
2022-09-11T12:50:54.144Z,95296.84
2022-09-11T12:53:25.355Z,95295.81
2022-09-11T12:56:01.504Z,95299.03
2022-09-11T12:58:41.742Z,95293.66
2022-09-11T13:01:11.751Z,95293.13
2022-09-11T13:03:48.674Z,95306.50
2022-09-11T13:06:16.176Z,95307.59
2022-09-11T13:08:56.620Z,95308.69
2022-09-11T13:11:39.902Z,95305.50
2022-09-11T13:14:29.149Z,95308.44
2022-09-11T13:17:12.180Z,95310.34
2022-09-11T13:19:39.356Z,95301.78
2022-09-11T13:22:34.595Z,95288.41
2022-09-11T13:25:13.543Z,95290.25
2022-09-11T13:27:44.008Z,95296.44
2022-09-11T13:30:15.470Z,95294.56
2022-09-11T13:32:43.390Z,95291.06
2022-09-11T13:35:16.480Z,95299.13
2022-09-11T13:37:58.269Z,95306.59
2022-09-11T13:40:31.327Z,95295.88
2022-09-11T13:43:00.801Z,95306.09
2022-09-11T13:45:28.751Z,95296.44
2022-09-11T13:47:55.592Z,95301.25
2022-09-11T13:50:23.511Z,95300.47
2022-09-11T13:52:53.393Z,95310.34
2022-09-11T13:55:23.625Z,95300.97
2022-09-11T13:57:56.233Z,95310.34
2022-09-11T14:00:44.918Z,95300.94
2022-09-11T14:03:24.581Z,95318.34
2022-09-11T14:05:55.054Z,95304.44
2022-09-11T14:08:56.278Z,95298.78
2022-09-11T14:11:31.486Z,95298.00
2022-09-11T14:14:06.915Z,95296.41
2022-09-11T14:16:36.636Z,95295.31
2022-09-11T14:19:17.978Z,95303.63
2022-09-11T14:21:47.222Z,95298.53
2022-09-11T14:24:27.164Z,95301.75
2022-09-11T14:26:58.152Z,95301.22
2022-09-11T14:29:38.443Z,95295.31
2022-09-11T14:32:34.778Z,95290.22
2022-09-11T14:35:01.403Z,95271.22
2022-09-11T14:37:34.650Z,95283.56
2022-09-11T14:40:06.715Z,95278.75
2022-09-11T14:42:36.728Z,95294.81
2022-09-11T14:45:19.812Z,95278.69
2022-09-11T14:47:46.762Z,95293.97
2022-09-11T14:50:13.662Z,95301.19
2022-09-11T14:52:44.920Z,95289.66
2022-09-11T14:55:16.637Z,95279.78
2022-09-11T14:57:43.461Z,95278.69
2022-09-11T15:00:13.582Z,95287.50
2022-09-11T15:02:40.041Z,95276.25
2022-09-11T15:05:15.583Z,95277.59
2022-09-11T15:07:45.494Z,95287.97
2022-09-11T15:10:13.622Z,95283.41
2022-09-11T15:12:40.298Z,95288.28
2022-09-11T15:15:07.314Z,95272.75
2022-09-11T15:17:36.388Z,95273.03
2022-09-11T15:20:09.240Z,95278.91
2022-09-11T15:22:36.514Z,95274.91
2022-09-11T15:25:03.641Z,95282.63
2022-09-11T15:27:31.630Z,95289.56
2022-09-11T15:29:58.109Z,95275.34
2022-09-11T15:32:24.644Z,95276.97
2022-09-11T15:34:51.728Z,95280.72
2022-09-11T15:37:18.269Z,95266.03
2022-09-11T15:39:44.884Z,95267.91
2022-09-11T15:42:11.820Z,95281.25
2022-09-11T15:44:38.330Z,95280.72
2022-09-11T15:47:05.114Z,95278.03
2022-09-11T15:49:31.810Z,95281.50
2022-09-11T15:51:59.670Z,95272.66
2022-09-11T15:54:27.254Z,95273.75
2022-09-11T15:56:54.309Z,95279.09
2022-09-11T15:59:20.792Z,95276.97
2022-09-11T16:01:47.595Z,95273.22
2022-09-11T16:04:18.721Z,95269.50
2022-09-11T16:06:47.645Z,95273.75
2022-09-11T16:09:24.543Z,95261.41
2022-09-11T16:11:51.884Z,95265.72
2022-09-11T16:14:21.154Z,95267.31
2022-09-11T16:16:48.142Z,95276.97
2022-09-11T16:19:15.713Z,95270.00
2022-09-11T16:21:42.246Z,95261.94
2022-09-11T16:24:10.000Z,95266.22
2022-09-11T16:26:38.308Z,95262.19
2022-09-11T16:29:08.755Z,95268.56
2022-09-11T16:31:35.921Z,95274.09
2022-09-11T16:34:04.115Z,95278.31
2022-09-11T16:36:33.760Z,95283.09
2022-09-11T16:39:01.123Z,95278.25
2022-09-11T16:41:27.593Z,95278.28
2022-09-11T16:43:54.161Z,95284.72
2022-09-11T16:46:25.368Z,95277.53
2022-09-11T16:48:54.952Z,95278.91
2022-09-11T16:51:23.523Z,95279.41
2022-09-11T16:53:51.053Z,95282.66
2022-09-11T16:56:20.012Z,95280.53
2022-09-11T16:58:46.951Z,95289.09
2022-09-11T17:01:16.611Z,95286.41
2022-09-11T17:03:49.331Z,95294.38
2022-09-11T17:06:17.017Z,95306.94
2022-09-11T17:08:44.621Z,95307.13
2022-09-11T17:11:14.531Z,95306.56
2022-09-11T17:13:43.252Z,95304.97
2022-09-11T17:16:16.142Z,95308.69
2022-09-11T17:18:48.103Z,95307.06
2022-09-11T17:21:16.322Z,95314.25
2022-09-11T17:23:43.540Z,95315.28
2022-09-11T17:26:12.643Z,95315.56
2022-09-11T17:28:39.725Z,95324.09
2022-09-11T17:31:08.609Z,95329.97
2022-09-11T17:33:36.616Z,95326.47
2022-09-11T17:36:04.494Z,95333.13
2022-09-11T17:38:31.135Z,95338.84
2022-09-11T17:41:00.057Z,95340.41
2022-09-11T17:43:26.760Z,95332.13
2022-09-11T17:46:00.906Z,95342.81
2022-09-11T17:48:28.670Z,95337.97
2022-09-11T17:51:11.166Z,95341.41
2022-09-11T17:53:39.962Z,95349.16
2022-09-11T17:56:09.802Z,95351.06
2022-09-11T17:58:37.062Z,95356.63
2022-09-11T18:01:04.576Z,95357.13
2022-09-11T18:03:31.893Z,95372.34
2022-09-11T18:05:59.454Z,95378.00
2022-09-11T18:08:27.109Z,95372.94
2022-09-11T18:11:01.184Z,95374.00
2022-09-11T18:13:31.407Z,95382.00
2022-09-11T18:15:58.154Z,95383.03
2022-09-11T18:18:25.103Z,95388.06
2022-09-11T18:20:55.395Z,95382.38
2022-09-11T18:23:25.340Z,95383.59
2022-09-11T18:25:51.819Z,95391.94
2022-09-11T18:28:20.010Z,95391.34
2022-09-11T18:30:47.543Z,95404.75
2022-09-11T18:33:16.739Z,95398.03
2022-09-11T18:35:44.234Z,95395.03
2022-09-11T18:38:10.972Z,95405.63
2022-09-11T18:40:37.483Z,95398.63
2022-09-11T18:43:05.442Z,95394.94
2022-09-11T18:45:35.188Z,95398.16
2022-09-11T18:48:02.008Z,95388.03
2022-09-11T18:50:28.919Z,95391.72
2022-09-11T18:52:56.561Z,95394.38
2022-09-11T18:55:23.106Z,95400.84
2022-09-11T18:57:50.711Z,95400.84
2022-09-11T19:00:18.192Z,95397.91
2022-09-11T19:02:45.873Z,95410.13
2022-09-11T19:05:15.506Z,95405.75
2022-09-11T19:07:43.923Z,95405.44
2022-09-11T19:10:11.738Z,95400.59
2022-09-11T19:12:39.065Z,95405.94
2022-09-11T19:15:07.183Z,95402.22
2022-09-11T19:17:34.286Z,95407.53
2022-09-11T19:20:00.857Z,95402.72
2022-09-11T19:22:29.001Z,95407.22
2022-09-11T19:24:55.479Z,95397.38
2022-09-11T19:27:21.947Z,95395.28
2022-09-11T19:29:49.010Z,95395.28
2022-09-11T19:32:16.307Z,95383.78
2022-09-11T19:34:47.301Z,95397.19
2022-09-11T19:37:14.547Z,95404.31
2022-09-11T19:39:41.227Z,95406.03
2022-09-11T19:42:09.292Z,95397.25
2022-09-11T19:44:36.091Z,95399.47
2022-09-11T19:47:03.024Z,95408.59
2022-09-11T19:49:29.936Z,95411.28
2022-09-11T19:51:57.249Z,95407.72
2022-09-11T19:54:24.045Z,95418.91
2022-09-11T19:56:51.165Z,95412.13
2022-09-11T19:59:18.665Z,95425.72
2022-09-11T20:01:45.372Z,95424.91
2022-09-11T20:04:13.537Z,95417.47
2022-09-11T20:06:40.140Z,95431.34
2022-09-11T20:09:29.893Z,95424.66
2022-09-11T20:11:53.731Z,95416.50
2022-09-11T20:14:20.185Z,95416.75
2022-09-11T20:16:46.650Z,95419.56
2022-09-11T20:19:14.972Z,95420.88
2022-09-11T20:21:41.720Z,95422.44
2022-09-11T20:24:08.259Z,95424.84
2022-09-11T20:26:35.637Z,95421.34
2022-09-11T20:29:07.805Z,95426.19
2022-09-11T20:31:47.878Z,95421.84
2022-09-11T20:34:16.665Z,95423.00
2022-09-11T20:36:43.288Z,95417.97
2022-09-11T20:39:11.731Z,95424.09
2022-09-11T20:41:38.281Z,95425.72
2022-09-11T20:44:04.780Z,95430.25
2022-09-11T20:46:31.494Z,95426.50
2022-09-11T20:48:58.240Z,95438.81
2022-09-11T20:51:25.065Z,95438.81
2022-09-11T20:53:51.634Z,95429.19
2022-09-11T20:56:22.413Z,95433.00
2022-09-11T20:58:49.696Z,95437.34
2022-09-11T21:01:19.591Z,95431.38
2022-09-11T21:03:48.624Z,95439.31
2022-09-11T21:06:15.782Z,95440.06
2022-09-11T21:08:44.338Z,95436.06
2022-09-11T21:11:12.259Z,95437.06
2022-09-11T21:13:40.551Z,95447.66
2022-09-11T21:16:10.256Z,95450.88
2022-09-11T21:18:37.506Z,95447.56
2022-09-11T21:21:04.440Z,95460.31
2022-09-11T21:23:31.408Z,95460.00
2022-09-11T21:25:58.352Z,95451.59
2022-09-11T21:28:24.862Z,95457.25
2022-09-11T21:30:51.438Z,95456.31
2022-09-11T21:33:18.564Z,95461.31
2022-09-11T21:35:50.149Z,95457.59
2022-09-11T21:38:16.612Z,95461.31
2022-09-11T21:40:43.072Z,95461.94
2022-09-11T21:43:09.556Z,95451.44
2022-09-11T21:45:36.011Z,95459.91
2022-09-11T21:48:02.752Z,95463.25
2022-09-11T21:50:29.240Z,95454.03
2022-09-11T21:52:55.714Z,95450.78
2022-09-11T21:55:22.184Z,95451.59
2022-09-11T21:57:48.759Z,95459.09
2022-09-11T22:00:15.450Z,95442.88
2022-09-11T22:02:42.112Z,95450.34
2022-09-11T22:05:09.561Z,95448.22
2022-09-11T22:07:36.060Z,95463.41
2022-09-11T22:10:04.484Z,95463.06
2022-09-11T22:12:30.992Z,95457.75
2022-09-11T22:14:57.570Z,95461.13
2022-09-11T22:17:24.457Z,95462.91
2022-09-11T22:19:51.215Z,95451.44
2022-09-11T22:22:17.821Z,95457.59
2022-09-11T22:24:44.300Z,95456.91
2022-09-11T22:27:11.294Z,95454.75
2022-09-11T22:29:37.843Z,95457.41
2022-09-11T22:32:05.412Z,95444.63
2022-09-11T22:34:36.482Z,95460.16
2022-09-11T22:37:03.627Z,95458.84
2022-09-11T22:39:31.778Z,95459.19
2022-09-11T22:41:59.704Z,95455.94
2022-09-11T22:44:26.597Z,95459.66
2022-09-11T22:46:53.398Z,95464.41
2022-09-11T22:49:19.868Z,95454.84
2022-09-11T22:51:46.389Z,95460.16
2022-09-11T22:54:13.920Z,95458.03
2022-09-11T22:56:40.483Z,95453.28
2022-09-11T22:59:07.256Z,95449.00
2022-09-11T23:01:33.995Z,95452.09
2022-09-11T23:04:00.463Z,95447.22
2022-09-11T23:06:45.564Z,95454.75
2022-09-11T23:09:16.746Z,95459.00
2022-09-11T23:11:45.099Z,95455.19
2022-09-11T23:14:14.341Z,95457.44
2022-09-11T23:16:41.220Z,95452.13
2022-09-11T23:19:07.855Z,95447.03
2022-09-11T23:21:35.842Z,95447.53
2022-09-11T23:24:04.725Z,95447.53
2022-09-11T23:26:31.266Z,95457.09
2022-09-11T23:28:58.366Z,95454.13
2022-09-11T23:31:28.794Z,95448.78
2022-09-11T23:33:57.767Z,95454.59
2022-09-11T23:36:25.567Z,95457.97
2022-09-11T23:38:52.395Z,95456.03
2022-09-11T23:41:19.358Z,95447.81
2022-09-11T23:43:46.050Z,95451.34
2022-09-11T23:46:13.181Z,95445.81
2022-09-11T23:48:39.774Z,95450.09
2022-09-11T23:51:10.487Z,95453.91
2022-09-11T23:53:43.378Z,95448.50
2022-09-11T23:56:10.995Z,95448.59
2022-09-11T23:58:40.244Z,95448.28
